createdAt,value
2022-11-03T00:01:44.552Z,3.90
2022-11-03T00:03:47.797Z,2.90
2022-11-03T00:06:08.698Z,2.30
2022-11-03T00:10:15.323Z,2.40
2022-11-03T00:12:19.977Z,3.00
2022-11-03T00:14:22.958Z,3.27
2022-11-03T00:16:25.873Z,2.90
2022-11-03T00:18:30.409Z,3.27
2022-11-03T00:20:35.118Z,3.33
2022-11-03T00:22:38.328Z,3.33
2022-11-03T00:24:41.501Z,2.90
2022-11-03T00:26:44.448Z,3.47
2022-11-03T00:28:48.477Z,3.23
2022-11-03T00:30:51.421Z,3.30
2022-11-03T00:32:54.611Z,3.20
2022-11-03T00:34:59.630Z,3.00
2022-11-03T00:37:02.582Z,2.30
2022-11-03T00:39:07.705Z,2.23
2022-11-03T00:41:11.451Z,2.77
2022-11-03T00:43:15.137Z,3.53
2022-11-03T00:45:18.532Z,4.53
2022-11-03T00:47:24.424Z,3.00
2022-11-03T00:49:27.431Z,2.60
2022-11-03T00:51:34.777Z,2.90
2022-11-03T00:53:39.572Z,3.40
2022-11-03T00:55:43.710Z,3.30
2022-11-03T00:57:46.661Z,3.83
2022-11-03T00:59:49.546Z,3.33
2022-11-03T01:01:52.606Z,2.50
2022-11-03T01:04:15.134Z,3.10
2022-11-03T01:06:37.099Z,2.97
2022-11-03T01:08:41.436Z,2.93
2022-11-03T01:11:04.833Z,2.83
2022-11-03T01:13:07.201Z,3.10
2022-11-03T01:15:11.424Z,2.40
2022-11-03T01:17:16.391Z,3.00
2022-11-03T01:19:19.706Z,2.80
2022-11-03T01:21:22.584Z,3.00
2022-11-03T01:23:26.039Z,2.50
2022-11-03T01:25:30.334Z,2.83
2022-11-03T01:27:36.054Z,2.77
2022-11-03T01:29:38.972Z,2.20
2022-11-03T01:31:42.748Z,3.80
2022-11-03T01:33:46.821Z,2.53
2022-11-03T01:35:54.154Z,2.77
2022-11-03T01:37:57.797Z,3.17
2022-11-03T01:40:01.267Z,3.50
2022-11-03T01:42:05.878Z,2.60
2022-11-03T01:44:36.326Z,2.40
2022-11-03T01:46:43.353Z,2.30
2022-11-03T01:48:49.913Z,2.87
2022-11-03T01:50:53.618Z,2.80
2022-11-03T01:52:58.425Z,2.00
2022-11-03T01:55:06.017Z,2.20
2022-11-03T01:57:14.126Z,2.30
2022-11-03T01:59:18.359Z,3.30
2022-11-03T02:01:24.920Z,2.60
2022-11-03T02:03:31.344Z,2.83
2022-11-03T02:05:40.670Z,2.10
2022-11-03T02:07:48.542Z,2.30
2022-11-03T02:09:54.450Z,2.73
2022-11-03T02:12:10.245Z,2.60
2022-11-03T02:14:15.674Z,3.13
2022-11-03T02:16:19.051Z,2.90
2022-11-03T02:18:26.259Z,2.87
2022-11-03T02:20:30.942Z,3.70
2022-11-03T02:22:57.429Z,2.00
2022-11-03T02:25:07.492Z,3.00
2022-11-03T02:27:12.056Z,2.90
2022-11-03T02:29:15.240Z,2.77
2022-11-03T02:31:24.448Z,2.60
2022-11-03T02:33:35.491Z,2.40
2022-11-03T02:35:42.696Z,2.70
2022-11-03T02:37:49.175Z,2.20
2022-11-03T02:39:55.846Z,2.80
2022-11-03T02:42:01.149Z,2.77
2022-11-03T02:44:06.397Z,2.80
2022-11-03T02:46:09.781Z,2.00
2022-11-03T02:48:12.903Z,3.23
2022-11-03T02:50:15.952Z,2.13
2022-11-03T02:52:36.710Z,2.50
2022-11-03T02:54:41.538Z,2.40
2022-11-03T02:56:49.509Z,1.93
2022-11-03T02:58:55.547Z,4.10
2022-11-03T03:01:03.842Z,2.17
2022-11-03T03:03:10.220Z,3.30
2022-11-03T03:05:15.808Z,3.03
2022-11-03T03:07:21.696Z,2.20
2022-11-03T03:09:28.612Z,4.00
2022-11-03T03:11:40.309Z,2.43
2022-11-03T03:13:44.791Z,3.10
2022-11-03T03:15:50.138Z,2.20
2022-11-03T03:17:57.391Z,2.47
2022-11-03T03:20:03.026Z,2.50
2022-11-03T03:22:12.245Z,2.70
2022-11-03T03:24:17.864Z,2.67
2022-11-03T03:26:26.000Z,2.30
2022-11-03T03:28:34.199Z,2.70
2022-11-03T03:30:37.759Z,2.50
2022-11-03T03:32:44.220Z,3.00
2022-11-03T03:34:49.208Z,2.60
2022-11-03T03:36:52.588Z,2.73
2022-11-03T03:38:58.394Z,4.10
2022-11-03T03:41:08.055Z,2.80
2022-11-03T03:43:14.590Z,2.40
2022-11-03T03:45:18.038Z,3.00
2022-11-03T03:47:24.928Z,2.60
2022-11-03T03:49:28.136Z,2.37
2022-11-03T03:51:34.547Z,2.23
2022-11-03T03:53:37.612Z,2.83
2022-11-03T03:55:41.836Z,1.97
2022-11-03T03:57:45.163Z,2.33
2022-11-03T03:59:48.284Z,2.83
2022-11-03T04:01:53.555Z,2.90
2022-11-03T04:03:56.500Z,2.07
2022-11-03T04:05:59.442Z,3.30
2022-11-03T04:08:02.684Z,2.70
2022-11-03T04:10:06.264Z,2.20
2022-11-03T04:12:27.135Z,2.50
2022-11-03T04:14:47.351Z,2.40
2022-11-03T04:17:08.141Z,3.00
2022-11-03T04:19:29.788Z,3.83
2022-11-03T04:21:50.277Z,2.13
2022-11-03T04:23:54.589Z,3.23
2022-11-03T04:25:58.222Z,2.63
2022-11-03T04:28:01.099Z,3.00
2022-11-03T04:30:15.481Z,2.43
2022-11-03T04:32:19.919Z,2.83
2022-11-03T04:34:23.793Z,2.60
2022-11-03T04:36:27.626Z,2.40
2022-11-03T04:38:31.280Z,2.13
2022-11-03T04:40:35.556Z,2.20
2022-11-03T04:42:38.535Z,2.87
2022-11-03T04:44:41.441Z,2.40
2022-11-03T04:46:45.247Z,3.07
2022-11-03T04:48:48.132Z,2.70
2022-11-03T04:50:56.013Z,2.50
2022-11-03T04:53:00.137Z,2.20
2022-11-03T04:55:03.068Z,2.57
2022-11-03T04:57:10.482Z,2.50
2022-11-03T04:59:15.145Z,2.80
2022-11-03T05:01:23.719Z,1.77
2022-11-03T05:03:30.268Z,2.10
2022-11-03T05:05:35.450Z,3.80
2022-11-03T05:07:38.373Z,2.50
2022-11-03T05:09:42.984Z,2.47
2022-11-03T05:11:47.414Z,2.50
2022-11-03T05:13:52.422Z,2.73
2022-11-03T05:16:01.178Z,3.07
2022-11-03T05:18:15.550Z,3.10
2022-11-03T05:20:34.689Z,3.20
2022-11-03T05:22:40.141Z,2.83
2022-11-03T05:24:43.148Z,1.83
2022-11-03T05:26:46.453Z,3.57
2022-11-03T05:28:56.251Z,2.47
2022-11-03T05:30:59.162Z,2.30
2022-11-03T05:33:02.279Z,2.77
2022-11-03T05:35:05.653Z,2.53
2022-11-03T05:37:25.843Z,2.63
2022-11-03T05:39:32.483Z,2.00
2022-11-03T05:41:36.920Z,2.30
2022-11-03T05:43:40.088Z,2.60
2022-11-03T05:45:45.694Z,2.17
2022-11-03T05:47:49.581Z,2.13
2022-11-03T05:49:57.345Z,2.93
2022-11-03T05:52:01.776Z,3.70
2022-11-03T05:54:06.850Z,2.10
2022-11-03T05:56:14.584Z,2.40
2022-11-03T05:58:32.765Z,2.10
2022-11-03T06:00:47.083Z,2.80
2022-11-03T06:02:53.130Z,2.63
2022-11-03T06:04:56.524Z,2.70
2022-11-03T06:07:06.091Z,2.20
2022-11-03T06:09:16.535Z,2.23
2022-11-03T06:11:27.383Z,2.37
2022-11-03T06:13:34.768Z,2.70
2022-11-03T06:15:39.047Z,2.37
2022-11-03T06:21:23.264Z,2.53
2022-11-03T06:23:29.036Z,2.33
2022-11-03T06:25:34.852Z,2.43
2022-11-03T06:27:37.807Z,2.70
2022-11-03T06:29:41.786Z,1.73
2022-11-03T06:31:49.070Z,2.30
2022-11-03T06:33:54.151Z,2.37
2022-11-03T06:36:01.357Z,2.33
2022-11-03T06:38:09.855Z,3.70
2022-11-03T06:40:38.828Z,2.50
2022-11-03T06:42:42.756Z,2.70
2022-11-03T06:44:48.114Z,2.03
2022-11-03T06:46:54.308Z,1.70
2022-11-03T06:49:00.628Z,2.70
2022-11-03T06:51:05.218Z,2.70
2022-11-03T06:53:13.515Z,2.47
2022-11-03T06:55:26.838Z,2.40
2022-11-03T06:57:35.321Z,2.23
2022-11-03T06:59:39.308Z,2.43
2022-11-03T07:01:43.051Z,2.63
2022-11-03T07:03:46.332Z,2.77
2022-11-03T07:05:49.718Z,2.60
2022-11-03T07:07:53.916Z,2.90
2022-11-03T07:09:58.215Z,2.80
2022-11-03T07:12:02.465Z,2.93
2022-11-03T07:14:13.276Z,3.40
2022-11-03T07:16:31.136Z,2.83
2022-11-03T07:18:36.373Z,2.80
2022-11-03T07:20:40.895Z,3.10
2022-11-03T07:22:45.052Z,2.50
2022-11-03T07:24:49.601Z,2.60
2022-11-03T07:26:58.133Z,2.63
2022-11-03T07:29:01.797Z,2.33
2022-11-03T07:31:16.425Z,2.03
2022-11-03T07:33:24.911Z,2.30
2022-11-03T07:35:47.268Z,2.00
2022-11-03T07:37:56.709Z,2.80
2022-11-03T07:39:59.873Z,2.10
2022-11-03T07:42:13.772Z,2.47
2022-11-03T07:44:21.594Z,1.80
2022-11-03T07:46:25.750Z,2.63
2022-11-03T07:48:33.822Z,2.23
2022-11-03T07:50:37.116Z,3.07
2022-11-03T07:52:40.033Z,2.50
2022-11-03T07:54:47.469Z,3.27
2022-11-03T07:56:55.408Z,3.13
2022-11-03T07:59:06.189Z,2.10
2022-11-03T08:01:20.835Z,2.47
2022-11-03T08:03:54.079Z,2.10
2022-11-03T08:05:58.430Z,2.50
2022-11-03T08:08:04.876Z,2.50
2022-11-03T08:10:10.194Z,2.87
2022-11-03T08:12:13.533Z,2.73
2022-11-03T08:14:18.388Z,2.53
2022-11-03T08:16:21.708Z,2.77
2022-11-03T08:18:25.109Z,3.00
2022-11-03T08:20:28.046Z,2.47
2022-11-03T08:22:32.890Z,2.77
2022-11-03T08:24:36.698Z,3.13
2022-11-03T08:26:40.828Z,2.80
2022-11-03T08:28:45.438Z,2.97
2022-11-03T08:30:52.295Z,2.77
2022-11-03T08:32:58.156Z,2.40
2022-11-03T08:35:01.437Z,2.30
2022-11-03T08:37:04.458Z,2.47
2022-11-03T08:39:07.401Z,2.03
2022-11-03T08:41:14.031Z,3.60
2022-11-03T08:43:17.753Z,1.87
2022-11-03T08:45:23.344Z,2.00
2022-11-03T08:47:30.423Z,3.20
2022-11-03T08:49:34.049Z,1.70
2022-11-03T08:51:41.447Z,2.50
2022-11-03T08:53:50.967Z,2.37
2022-11-03T08:55:56.205Z,2.57
2022-11-03T08:57:59.166Z,2.27
2022-11-03T09:00:03.233Z,2.30
2022-11-03T09:02:06.719Z,1.97
2022-11-03T09:04:13.123Z,2.80
2022-11-03T09:06:17.372Z,2.03
2022-11-03T09:10:45.424Z,2.22
2022-11-03T09:12:48.553Z,2.33
2022-11-03T09:14:51.453Z,1.98
2022-11-03T09:16:58.469Z,1.98
2022-11-03T09:19:04.138Z,2.05
2022-11-03T09:21:11.309Z,2.13
2022-11-03T09:23:14.196Z,2.30
2022-11-03T09:25:17.438Z,1.90
2022-11-03T09:27:20.575Z,2.30
2022-11-03T09:29:23.950Z,2.70
2022-11-03T09:31:31.271Z,2.08
2022-11-03T09:33:34.802Z,2.65
2022-11-03T09:35:37.950Z,2.20
2022-11-03T09:37:45.496Z,1.75
2022-11-03T09:39:48.380Z,2.50
2022-11-03T09:41:58.485Z,2.00
2022-11-03T09:44:08.646Z,1.88
2022-11-03T09:46:11.661Z,1.83
2022-11-03T09:48:15.175Z,2.28
2022-11-03T09:50:20.443Z,3.30
2022-11-03T09:52:24.746Z,2.45
2022-11-03T09:54:29.792Z,2.30
2022-11-03T09:56:33.286Z,2.50
2022-11-03T09:58:37.278Z,1.90
2022-11-03T10:00:40.602Z,1.60
2022-11-03T10:02:44.135Z,1.92
2022-11-03T10:04:47.056Z,2.17
2022-11-03T10:06:50.804Z,1.95
2022-11-03T10:08:54.027Z,1.60
2022-11-03T10:10:59.304Z,2.05
2022-11-03T10:13:09.083Z,2.42
2022-11-03T10:15:15.861Z,2.30
2022-11-03T10:17:20.708Z,1.70
2022-11-03T10:19:25.409Z,2.47
2022-11-03T10:21:30.391Z,1.70
2022-11-03T10:23:33.754Z,2.53
2022-11-03T10:25:38.826Z,3.05
2022-11-03T10:27:53.138Z,2.08
2022-11-03T10:30:10.571Z,2.30
2022-11-03T10:32:30.378Z,2.05
2022-11-03T10:34:36.499Z,1.83
2022-11-03T10:36:39.442Z,2.65
2022-11-03T10:38:43.912Z,2.30
2022-11-03T10:40:48.483Z,1.80
2022-11-03T10:42:59.891Z,2.38
2022-11-03T10:45:13.504Z,2.30
2022-11-03T10:47:25.540Z,1.85
2022-11-03T10:49:29.700Z,1.73
2022-11-03T10:51:33.560Z,2.33
2022-11-03T10:53:36.518Z,2.47
2022-11-03T10:55:40.326Z,1.40
2022-11-03T10:57:43.415Z,2.63
2022-11-03T10:59:49.942Z,1.88
2022-11-03T11:01:54.218Z,1.80
2022-11-03T11:03:58.338Z,2.00
2022-11-03T11:06:04.901Z,2.28
2022-11-03T11:08:07.851Z,2.10
2022-11-03T11:10:17.038Z,2.33
2022-11-03T11:12:22.718Z,2.00
2022-11-03T11:14:37.083Z,2.38
2022-11-03T11:16:53.543Z,1.58
2022-11-03T11:19:12.553Z,1.83
2022-11-03T11:21:59.472Z,1.83
2022-11-03T11:24:02.591Z,2.30
2022-11-03T11:26:16.121Z,1.90
2022-11-03T11:28:20.136Z,1.88
2022-11-03T11:31:06.525Z,1.88
2022-11-03T11:33:24.009Z,2.10
2022-11-03T11:36:12.350Z,1.70
2022-11-03T11:39:01.368Z,1.80
2022-11-03T11:41:04.338Z,3.28
2022-11-03T11:43:27.181Z,2.33
2022-11-03T11:46:07.554Z,2.40
2022-11-03T11:48:19.508Z,2.33
2022-11-03T11:50:24.987Z,2.38
2022-11-03T11:52:30.564Z,2.78
2022-11-03T11:54:33.786Z,1.98
2022-11-03T11:56:42.984Z,1.50
2022-11-03T11:58:50.017Z,1.55
2022-11-03T12:00:56.306Z,1.27
2022-11-03T12:03:00.233Z,1.60
2022-11-03T12:05:09.788Z,2.38
2022-11-03T12:07:13.569Z,1.58
2022-11-03T12:09:18.753Z,1.83
2022-11-03T12:11:45.677Z,2.45
2022-11-03T12:13:51.467Z,1.67
2022-11-03T12:16:00.691Z,1.95
2022-11-03T12:18:40.699Z,2.10
2022-11-03T12:20:48.922Z,1.95
2022-11-03T12:22:52.010Z,2.10
2022-11-03T12:25:00.743Z,1.25
2022-11-03T12:27:04.683Z,1.58
2022-11-03T12:29:07.569Z,1.83
2022-11-03T12:31:10.607Z,1.85
2022-11-03T12:33:13.600Z,1.58
2022-11-03T12:35:17.479Z,1.80
2022-11-03T12:37:24.576Z,1.40
2022-11-03T12:39:27.470Z,1.30
2022-11-03T12:41:30.458Z,1.65
2022-11-03T12:43:33.316Z,1.65
2022-11-03T12:45:38.465Z,1.70
2022-11-03T12:47:41.569Z,1.77
2022-11-03T12:49:44.563Z,1.70
2022-11-03T12:51:47.583Z,1.70
2022-11-03T12:53:52.363Z,1.27
2022-11-03T12:55:55.208Z,1.40
2022-11-03T12:57:58.152Z,1.58
2022-11-03T13:00:01.074Z,1.27
2022-11-03T13:02:04.095Z,1.55
2022-11-03T13:04:07.252Z,1.67
2022-11-03T13:06:11.789Z,1.52
2022-11-03T13:08:14.731Z,1.42
2022-11-03T13:10:21.685Z,1.70
2022-11-03T13:12:32.862Z,1.90
2022-11-03T13:14:35.706Z,1.77
2022-11-03T13:16:41.744Z,1.83
2022-11-03T13:18:44.841Z,1.20
2022-11-03T13:20:47.821Z,1.75
2022-11-03T13:22:50.764Z,1.67
2022-11-03T13:24:54.341Z,1.33
2022-11-03T13:26:58.650Z,1.60
2022-11-03T13:29:01.872Z,1.77
2022-11-03T13:31:05.446Z,2.00
2022-11-03T13:33:09.307Z,1.60
2022-11-03T13:35:13.963Z,1.58
2022-11-03T13:37:17.349Z,1.55
2022-11-03T13:39:20.237Z,2.22
2022-11-03T13:41:23.850Z,1.70
2022-11-03T13:43:28.964Z,1.40
2022-11-03T13:45:31.854Z,2.20
2022-11-03T13:48:15.415Z,1.90
2022-11-03T13:50:14.507Z,1.58
2022-11-03T13:52:18.137Z,2.17
2022-11-03T14:01:27.361Z,1.60
2022-11-03T14:05:55.231Z,2.50
2022-11-03T14:07:59.478Z,1.80
2022-11-03T14:10:04.227Z,1.80
2022-11-03T14:12:25.776Z,1.95
2022-11-03T14:14:30.071Z,2.28
2022-11-03T14:16:33.255Z,1.77
2022-11-03T14:18:36.383Z,2.28
2022-11-03T14:20:39.333Z,2.05
2022-11-03T14:22:43.443Z,2.25
2022-11-03T14:24:46.450Z,2.42
2022-11-03T14:26:49.731Z,1.98
2022-11-03T14:28:52.859Z,1.45
2022-11-03T14:30:59.743Z,1.70
2022-11-03T14:33:02.710Z,2.00
2022-11-03T14:35:07.570Z,1.80
2022-11-03T14:37:11.199Z,2.00
2022-11-03T14:39:14.174Z,1.60
2022-11-03T14:41:34.699Z,2.10
2022-11-03T14:43:37.633Z,2.35
2022-11-03T14:45:42.784Z,1.65
2022-11-03T14:47:47.209Z,2.00
2022-11-03T14:49:50.241Z,1.40
2022-11-03T14:51:53.965Z,2.28
2022-11-03T14:53:58.382Z,2.65
2022-11-03T14:56:02.448Z,1.70
2022-11-03T14:58:05.523Z,1.63
2022-11-03T15:00:11.569Z,1.80
2022-11-03T15:02:14.921Z,2.25
2022-11-03T15:04:19.719Z,1.70
2022-11-03T15:06:22.801Z,1.80
2022-11-03T15:08:26.357Z,1.73
2022-11-03T15:10:29.515Z,2.20
2022-11-03T15:12:32.680Z,1.75
2022-11-03T15:14:35.593Z,2.00
2022-11-03T15:16:39.669Z,2.45
2022-11-03T15:18:44.182Z,2.67
2022-11-03T15:20:51.068Z,2.28
2022-11-03T15:25:21.559Z,2.00
2022-11-03T15:27:30.257Z,1.70
2022-11-03T15:29:33.235Z,2.33
2022-11-03T15:31:36.123Z,1.60
2022-11-03T15:33:39.095Z,1.75
2022-11-03T15:35:42.027Z,2.47
2022-11-03T15:37:46.351Z,1.90
2022-11-03T15:39:49.170Z,1.75
2022-11-03T15:41:52.295Z,2.00
2022-11-03T15:43:55.546Z,2.17
2022-11-03T15:45:58.529Z,2.10
2022-11-03T15:48:01.998Z,2.20
2022-11-03T15:50:05.084Z,2.15
2022-11-03T15:52:09.706Z,1.98
2022-11-03T15:54:14.043Z,1.88
2022-11-03T15:56:17.213Z,2.20
2022-11-03T15:58:20.176Z,2.10
2022-11-03T16:00:23.279Z,2.28
2022-11-03T16:02:42.330Z,2.67
2022-11-03T16:04:45.550Z,3.13
2022-11-03T16:09:16.865Z,2.13
2022-11-03T16:11:19.848Z,2.03
2022-11-03T16:13:23.279Z,2.58
2022-11-03T16:15:26.322Z,2.10
2022-11-03T16:17:29.908Z,1.85
2022-11-03T16:19:35.667Z,2.42
2022-11-03T16:21:38.867Z,2.40
2022-11-03T16:23:42.128Z,2.40
2022-11-03T16:25:46.345Z,2.20
2022-11-03T16:27:49.355Z,2.08
2022-11-03T16:29:53.487Z,2.30
2022-11-03T16:31:56.438Z,2.15
2022-11-03T16:34:00.728Z,2.30
2022-11-03T16:36:03.988Z,3.17
2022-11-03T16:38:09.363Z,3.03
2022-11-03T16:40:19.066Z,3.07
2022-11-03T16:42:23.896Z,2.27
2022-11-03T16:44:28.858Z,2.65
2022-11-03T16:46:31.786Z,2.10
2022-11-03T16:48:36.266Z,2.67
2022-11-03T16:50:41.581Z,2.73
2022-11-03T16:52:49.030Z,2.20
2022-11-03T16:54:54.384Z,3.33
2022-11-03T16:56:57.479Z,2.60
2022-11-03T16:59:01.850Z,2.67
2022-11-03T17:01:05.351Z,2.67
2022-11-03T17:03:08.765Z,3.20
2022-11-03T17:05:13.214Z,2.60
2022-11-03T17:07:16.520Z,2.90
2022-11-03T17:09:20.266Z,3.20
2022-11-03T17:11:36.729Z,3.00
2022-11-03T17:13:39.881Z,3.53
2022-11-03T17:15:44.118Z,3.23
2022-11-03T17:17:47.380Z,2.73
2022-11-03T17:19:50.264Z,3.00
2022-11-03T17:21:53.202Z,3.30
2022-11-03T17:23:58.907Z,3.20
2022-11-03T17:26:03.055Z,2.70
2022-11-03T17:28:06.548Z,4.10
2022-11-03T17:30:14.853Z,3.37
2022-11-03T17:32:24.818Z,2.67
2022-11-03T17:34:27.737Z,2.93
2022-11-03T17:36:30.728Z,2.80
2022-11-03T17:39:13.558Z,2.83
2022-11-03T17:41:19.018Z,3.03
2022-11-03T17:43:24.088Z,4.87
2022-11-03T17:45:28.459Z,2.90
2022-11-03T17:47:34.450Z,2.87
2022-11-03T17:49:37.346Z,3.07
2022-11-03T17:51:42.708Z,3.43
2022-11-03T17:53:46.958Z,3.53
2022-11-03T17:56:08.818Z,2.90
2022-11-03T17:58:13.912Z,3.93
2022-11-03T18:00:20.558Z,4.47
2022-11-03T18:02:25.512Z,9.40
2022-11-03T18:04:29.925Z,3.40
2022-11-03T18:06:32.874Z,3.20
2022-11-03T18:08:35.748Z,2.90
2022-11-03T18:10:41.681Z,2.50
2022-11-03T18:13:05.000Z,2.97
2022-11-03T18:15:12.142Z,3.70
2022-11-03T18:17:15.238Z,3.40
2022-11-03T18:19:18.686Z,3.00
2022-11-03T18:21:23.712Z,3.13
2022-11-03T18:23:28.325Z,3.17
2022-11-03T18:25:31.390Z,3.33
2022-11-03T18:27:34.564Z,3.10
2022-11-03T18:29:37.529Z,2.80
2022-11-03T18:31:42.848Z,2.87
2022-11-03T18:33:46.188Z,2.63
2022-11-03T18:35:49.568Z,3.30
2022-11-03T18:37:54.070Z,3.20
2022-11-03T18:39:57.085Z,2.80
2022-11-03T18:42:02.853Z,3.10
2022-11-03T18:44:12.083Z,3.10
2022-11-03T18:46:16.218Z,2.60
2022-11-03T18:48:20.413Z,3.30
2022-11-03T18:50:24.136Z,3.37
2022-11-03T18:52:27.828Z,3.00
2022-11-03T18:54:33.003Z,3.00
2022-11-03T18:56:38.201Z,3.30
2022-11-03T18:58:41.345Z,3.23
2022-11-03T19:00:44.582Z,3.77
2022-11-03T19:02:48.392Z,2.80
2022-11-03T19:04:51.398Z,3.27
2022-11-03T19:06:56.337Z,2.90
2022-11-03T19:09:01.859Z,3.60
2022-11-03T19:11:07.082Z,2.97
2022-11-03T19:13:11.048Z,3.20
2022-11-03T19:15:19.925Z,3.03
2022-11-03T19:17:24.608Z,3.40
2022-11-03T19:19:28.614Z,3.50
2022-11-03T19:21:31.672Z,3.53
2022-11-03T19:23:35.317Z,3.93
2022-11-03T19:25:41.351Z,3.33
2022-11-03T19:27:47.498Z,3.60
2022-11-03T19:29:50.780Z,3.70
2022-11-03T19:31:54.524Z,3.60
2022-11-03T19:33:58.164Z,3.00
2022-11-03T19:36:04.343Z,3.40
2022-11-03T19:38:13.501Z,3.70
2022-11-03T19:40:17.886Z,2.90
2022-11-03T19:42:34.101Z,3.50
2022-11-03T19:44:38.791Z,3.20
2022-11-03T19:46:42.429Z,3.30
2022-11-03T19:48:45.512Z,3.90
2022-11-03T19:50:48.765Z,3.37
2022-11-03T19:52:52.052Z,3.07
2022-11-03T19:54:57.031Z,3.70
2022-11-03T19:56:59.942Z,3.60
2022-11-03T19:59:04.543Z,3.10
2022-11-03T20:01:09.574Z,4.60
2022-11-03T20:03:13.259Z,3.13
2022-11-03T20:05:16.725Z,3.37
2022-11-03T20:07:19.724Z,4.13
2022-11-03T20:09:24.869Z,3.57
2022-11-03T20:11:27.783Z,3.37
2022-11-03T20:13:34.889Z,3.77
2022-11-03T20:15:37.789Z,4.20
2022-11-03T20:17:42.087Z,3.70
2022-11-03T20:19:45.314Z,3.70
2022-11-03T20:21:50.743Z,3.87
2022-11-03T20:23:54.555Z,4.20
2022-11-03T20:26:00.635Z,4.23
2022-11-03T20:28:12.008Z,4.53
2022-11-03T20:30:17.760Z,5.17
2022-11-03T20:32:20.644Z,5.10
2022-11-03T20:34:25.674Z,5.40
2022-11-03T20:36:28.655Z,5.07
2022-11-03T20:38:31.773Z,5.13
2022-11-03T20:40:35.501Z,5.27
2022-11-03T20:42:39.505Z,5.20
2022-11-03T20:44:42.802Z,4.80
2022-11-03T20:46:48.055Z,4.67
2022-11-03T20:48:51.882Z,5.30
2022-11-03T20:50:57.120Z,4.33
2022-11-03T20:53:00.400Z,4.57
2022-11-03T20:55:14.431Z,4.40
2022-11-03T20:57:17.473Z,4.60
2022-11-03T20:59:23.150Z,5.03
2022-11-03T21:01:30.580Z,4.43
2022-11-03T21:05:58.854Z,3.10
2022-11-03T21:08:01.886Z,3.00
2022-11-03T21:10:05.299Z,2.53
2022-11-03T21:12:12.746Z,2.80
2022-11-03T21:14:19.317Z,2.70
2022-11-03T21:16:40.083Z,2.90
2022-11-03T21:19:00.423Z,3.07
2022-11-03T21:21:11.263Z,3.77
2022-11-03T21:23:19.152Z,3.50
2022-11-03T21:25:24.120Z,3.60
2022-11-03T21:27:51.186Z,3.00
2022-11-03T21:30:13.442Z,2.90
2022-11-03T21:32:23.905Z,2.80
2022-11-03T21:34:31.688Z,2.70
2022-11-03T21:36:56.323Z,2.13
2022-11-03T21:39:00.042Z,2.23
2022-11-03T21:41:16.913Z,2.03
2022-11-03T21:43:38.064Z,2.13
2022-11-03T21:45:41.028Z,2.00
2022-11-03T21:48:06.476Z,2.03
2022-11-03T21:50:12.150Z,1.90
2022-11-03T21:52:18.046Z,1.90
2022-11-03T21:54:20.984Z,1.77
2022-11-03T21:56:25.574Z,1.77
2022-11-03T21:58:28.517Z,1.90
2022-11-03T22:00:31.854Z,1.60
2022-11-03T22:02:34.782Z,1.97
2022-11-03T22:04:38.088Z,1.70
2022-11-03T22:06:40.992Z,1.93
2022-11-03T22:08:46.407Z,2.10
2022-11-03T22:10:49.370Z,2.00
2022-11-03T22:12:53.582Z,2.00
2022-11-03T22:15:14.196Z,1.73
2022-11-03T22:17:17.127Z,2.20
2022-11-03T22:19:38.706Z,2.20
2022-11-03T22:21:59.263Z,2.00
2022-11-03T22:24:21.800Z,2.10
2022-11-03T22:26:41.934Z,2.40
2022-11-03T22:28:45.175Z,2.30
2022-11-03T22:31:05.397Z,2.33
2022-11-03T22:33:08.337Z,2.27
2022-11-03T22:35:30.357Z,2.17
2022-11-03T22:39:56.492Z,1.90
2022-11-03T22:42:16.713Z,2.20
2022-11-03T22:44:36.521Z,2.23
2022-11-03T22:46:39.723Z,2.10
2022-11-03T22:48:42.884Z,2.20
2022-11-03T22:50:45.854Z,2.30
2022-11-03T22:52:48.742Z,2.30
2022-11-03T22:54:52.085Z,2.30
2022-11-03T22:56:54.960Z,2.50
2022-11-03T22:58:58.215Z,2.50
2022-11-03T23:01:04.654Z,2.40
2022-11-03T23:03:07.915Z,2.30
2022-11-03T23:05:11.466Z,2.27
2022-11-03T23:07:15.181Z,2.40
2022-11-03T23:09:18.047Z,2.47
2022-11-03T23:11:24.155Z,1.90
2022-11-03T23:13:30.286Z,2.00
2022-11-03T23:15:32.281Z,2.17
2022-11-03T23:17:48.985Z,2.23
2022-11-03T23:20:12.503Z,2.20
2022-11-03T23:22:15.430Z,2.00
2022-11-03T23:24:40.571Z,2.13
2022-11-03T23:26:49.803Z,2.30
2022-11-03T23:28:56.528Z,2.43
2022-11-03T23:30:59.422Z,1.83
2022-11-03T23:33:02.307Z,2.27
2022-11-03T23:35:05.785Z,1.83
2022-11-03T23:37:08.691Z,1.97
2022-11-03T23:39:13.276Z,1.90
2022-11-03T23:41:19.655Z,1.33
2022-11-03T23:43:23.929Z,1.63
2022-11-03T23:45:44.251Z,1.77
2022-11-03T23:48:06.666Z,1.60
2022-11-03T23:50:10.207Z,1.70
2022-11-03T23:52:14.593Z,1.60
2022-11-03T23:54:18.508Z,1.70
2022-11-03T23:56:42.064Z,1.57
2022-11-03T23:58:49.418Z,1.33
